sensor_id;sensor_type;location;lat;lon;timestamp;pressure;altitude;pressure_sealevel;temperature
43802;BMP280;29429;51.074;13.764;2023-04-07T00:01:27;100274.28;;;1.99
43802;BMP280;29429;51.074;13.764;2023-04-07T00:03:56;100278.44;;;1.92
43802;BMP280;29429;51.074;13.764;2023-04-07T00:06:29;100271.06;;;1.86
43802;BMP280;29429;51.074;13.764;2023-04-07T00:08:57;100284.38;;;1.84
43802;BMP280;29429;51.074;13.764;2023-04-07T00:19:46;100269.59;;;1.44
43802;BMP280;29429;51.074;13.764;2023-04-07T00:22:23;100272.19;;;1.34
43802;BMP280;29429;51.074;13.764;2023-04-07T00:24:55;100286.88;;;1.37
43802;BMP280;29429;51.074;13.764;2023-04-07T00:27:27;100271.19;;;1.26
43802;BMP280;29429;51.074;13.764;2023-04-07T00:30:11;100271.34;;;1.24
43802;BMP280;29429;51.074;13.764;2023-04-07T00:33:17;100276.19;;;1.29
43802;BMP280;29429;51.074;13.764;2023-04-07T00:39:44;100266.28;;;1.11
43802;BMP280;29429;51.074;13.764;2023-04-07T00:42:34;100272.81;;;1.17
43802;BMP280;29429;51.074;13.764;2023-04-07T00:45:17;100267.00;;;1.13
43802;BMP280;29429;51.074;13.764;2023-04-07T00:47:56;100252.84;;;0.95
43802;BMP280;29429;51.074;13.764;2023-04-07T00:50:47;100259.03;;;0.94
43802;BMP280;29429;51.074;13.764;2023-04-07T00:53:43;100268.47;;;1.06
43802;BMP280;29429;51.074;13.764;2023-04-07T01:16:26;100241.84;;;0.81
43802;BMP280;29429;51.074;13.764;2023-04-07T01:23:07;100222.19;;;0.75
43802;BMP280;29429;51.074;13.764;2023-04-07T01:26:25;100224.81;;;0.75
43802;BMP280;29429;51.074;13.764;2023-04-07T01:37:03;100241.53;;;0.74
43802;BMP280;29429;51.074;13.764;2023-04-07T01:39:52;100209.13;;;0.64
43802;BMP280;29429;51.074;13.764;2023-04-07T01:42:35;100233.47;;;0.66
43802;BMP280;29429;51.074;13.764;2023-04-07T01:45:51;100226.38;;;0.57
43802;BMP280;29429;51.074;13.764;2023-04-07T01:48:56;100228.25;;;0.66
43802;BMP280;29429;51.074;13.764;2023-04-07T01:52:04;100217.41;;;0.59
43802;BMP280;29429;51.074;13.764;2023-04-07T01:55:03;100220.72;;;0.61
43802;BMP280;29429;51.074;13.764;2023-04-07T02:02:23;100220.19;;;0.58
43802;BMP280;29429;51.074;13.764;2023-04-07T02:05:12;100206.34;;;0.56
43802;BMP280;29429;51.074;13.764;2023-04-07T02:08:08;100220.19;;;0.58
43802;BMP280;29429;51.074;13.764;2023-04-07T02:11:23;100216.28;;;0.52
43802;BMP280;29429;51.074;13.764;2023-04-07T02:14:12;100208.66;;;0.49
43802;BMP280;29429;51.074;13.764;2023-04-07T02:17:28;100202.56;;;0.49
43802;BMP280;29429;51.074;13.764;2023-04-07T02:21:39;100222.81;;;0.58
43802;BMP280;29429;51.074;13.764;2023-04-07T02:29:28;100207.88;;;0.38
43802;BMP280;29429;51.074;13.764;2023-04-07T02:32:41;100209.56;;;0.39
43802;BMP280;29429;51.074;13.764;2023-04-07T02:35:22;100201.94;;;0.36
43802;BMP280;29429;51.074;13.764;2023-04-07T02:38:04;100194.06;;;0.36
43802;BMP280;29429;51.074;13.764;2023-04-07T02:40:46;100206.53;;;0.43
43802;BMP280;29429;51.074;13.764;2023-04-07T02:43:27;100191.31;;;0.37
43802;BMP280;29429;51.074;13.764;2023-04-07T02:46:24;100192.16;;;0.38
43802;BMP280;29429;51.074;13.764;2023-04-07T02:49:27;100194.06;;;0.36
43802;BMP280;29429;51.074;13.764;2023-04-07T02:51:59;100199.25;;;0.47
43802;BMP280;29429;51.074;13.764;2023-04-07T02:54:27;100200.38;;;0.54
43802;BMP280;29429;51.074;13.764;2023-04-07T02:56:57;100209.69;;;0.58
43802;BMP280;29429;51.074;13.764;2023-04-07T02:59:27;100199.19;;;0.58
43802;BMP280;29429;51.074;13.764;2023-04-07T03:01:56;100190.16;;;0.51
43802;BMP280;29429;51.074;13.764;2023-04-07T03:04:24;100197.25;;;0.60
43802;BMP280;29429;51.074;13.764;2023-04-07T03:06:52;100201.41;;;0.63
43802;BMP280;29429;51.074;13.764;2023-04-07T03:09:21;100203.88;;;0.64
43802;BMP280;29429;51.074;13.764;2023-04-07T03:11:50;100202.25;;;0.63
43802;BMP280;29429;51.074;13.764;2023-04-07T03:14:18;100197.84;;;0.64
43802;BMP280;29429;51.074;13.764;2023-04-07T03:16:47;100190.78;;;0.64
43802;BMP280;29429;51.074;13.764;2023-04-07T03:19:15;100195.66;;;0.69
43802;BMP280;29429;51.074;13.764;2023-04-07T03:21:47;100179.84;;;0.59
43802;BMP280;29429;51.074;13.764;2023-04-07T03:24:15;100198.00;;;0.72
43802;BMP280;29429;51.074;13.764;2023-04-07T03:26:45;100188.31;;;0.72
43802;BMP280;29429;51.074;13.764;2023-04-07T03:29:38;100187.38;;;0.73
43802;BMP280;29429;51.074;13.764;2023-04-07T03:32:10;100188.31;;;0.72
43802;BMP280;29429;51.074;13.764;2023-04-07T03:34:37;100195.50;;;0.70
43802;BMP280;29429;51.074;13.764;2023-04-07T03:37:04;100194.56;;;0.71
43802;BMP280;29429;51.074;13.764;2023-04-07T03:39:34;100178.81;;;0.71
43802;BMP280;29429;51.074;13.764;2023-04-07T03:42:12;100179.06;;;0.68
43802;BMP280;29429;51.074;13.764;2023-04-07T03:44:40;100164.53;;;0.64
43802;BMP280;29429;51.074;13.764;2023-04-07T03:47:07;100183.47;;;0.68
43802;BMP280;29429;51.074;13.764;2023-04-07T03:49:35;100177.66;;;0.64
43802;BMP280;29429;51.074;13.764;2023-04-07T03:52:05;100177.38;;;0.57
43802;BMP280;29429;51.074;13.764;2023-04-07T03:54:33;100178.19;;;0.58
43802;BMP280;29429;51.074;13.764;2023-04-07T03:57:07;100175.13;;;0.53
43802;BMP280;29429;51.074;13.764;2023-04-07T03:59:43;100175.66;;;0.47
43802;BMP280;29429;51.074;13.764;2023-04-07T04:02:11;100181.59;;;0.49
43802;BMP280;29429;51.074;13.764;2023-04-07T04:04:39;100181.84;;;0.46
43802;BMP280;29429;51.074;13.764;2023-04-07T04:07:09;100180.47;;;0.42
43802;BMP280;29429;51.074;13.764;2023-04-07T04:09:44;100173.69;;;0.39
43802;BMP280;29429;51.074;13.764;2023-04-07T04:12:12;100186.66;;;0.41
43802;BMP280;29429;51.074;13.764;2023-04-07T04:14:49;100184.44;;;0.36
43802;BMP280;29429;51.074;13.764;2023-04-07T04:17:17;100191.31;;;0.37
43802;BMP280;29429;51.074;13.764;2023-04-07T04:19:46;100182.06;;;0.33
43802;BMP280;29429;51.074;13.764;2023-04-07T04:22:29;100185.75;;;0.31
43802;BMP280;29429;51.074;13.764;2023-04-07T04:24:58;100192.69;;;0.32
43802;BMP280;29429;51.074;13.764;2023-04-07T04:27:28;100193.38;;;0.34
43802;BMP280;29429;51.074;13.764;2023-04-07T04:30:03;100189.91;;;0.33
43802;BMP280;29429;51.074;13.764;2023-04-07T04:32:36;100185.19;;;0.27
43802;BMP280;29429;51.074;13.764;2023-04-07T04:35:06;100201.06;;;0.26
43802;BMP280;29429;51.074;13.764;2023-04-07T04:37:42;100202.00;;;0.25
43802;BMP280;29429;51.074;13.764;2023-04-07T04:40:11;100184.16;;;0.19
43802;BMP280;29429;51.074;13.764;2023-04-07T04:42:42;100198.69;;;0.23
43802;BMP280;29429;51.074;13.764;2023-04-07T04:45:11;100198.94;;;0.20
43802;BMP280;29429;51.074;13.764;2023-04-07T04:47:44;100200.63;;;0.21
43802;BMP280;29429;51.074;13.764;2023-04-07T04:50:13;100192.84;;;0.19
43802;BMP280;29429;51.074;13.764;2023-04-07T04:52:43;100199.19;;;0.17
43802;BMP280;29429;51.074;13.764;2023-04-07T04:55:17;100195.03;;;0.14
43802;BMP280;29429;51.074;13.764;2023-04-07T04:57:45;100194.47;;;0.11
43802;BMP280;29429;51.074;13.764;2023-04-07T05:00:19;100196.25;;;0.10
43802;BMP280;29429;51.074;13.764;2023-04-07T05:02:49;100196.81;;;0.14
43802;BMP280;29429;51.074;13.764;2023-04-07T05:05:17;100199.31;;;0.15
43802;BMP280;29429;51.074;13.764;2023-04-07T05:07:48;100188.41;;;0.10
43802;BMP280;29429;51.074;13.764;2023-04-07T05:10:16;100188.16;;;0.13
43802;BMP280;29429;51.074;13.764;2023-04-07T05:12:49;100187.41;;;0.11
43802;BMP280;29429;51.074;13.764;2023-04-07T05:15:20;100190.63;;;0.15
43802;BMP280;29429;51.074;13.764;2023-04-07T05:17:49;100191.13;;;0.09
43802;BMP280;29429;51.074;13.764;2023-04-07T05:20:21;100183.00;;;0.12
43802;BMP280;29429;51.074;13.764;2023-04-07T05:22:49;100180.00;;;0.16
43802;BMP280;29429;51.074;13.764;2023-04-07T05:25:18;100191.25;;;0.28
43802;BMP280;29429;51.074;13.764;2023-04-07T05:27:52;100194.47;;;0.31
43802;BMP280;29429;51.074;13.764;2023-04-07T05:30:19;100192.41;;;0.35
43802;BMP280;29429;51.074;13.764;2023-04-07T05:32:46;100185.13;;;0.38
43802;BMP280;29429;51.074;13.764;2023-04-07T05:35:25;100191.81;;;0.52
43802;BMP280;29429;51.074;13.764;2023-04-07T05:37:56;100196.81;;;0.55
43802;BMP280;29429;51.074;13.764;2023-04-07T05:40:23;100179.41;;;0.54
43802;BMP280;29429;51.074;13.764;2023-04-07T05:42:51;100189.81;;;0.65
43802;BMP280;29429;51.074;13.764;2023-04-07T05:45:19;100181.25;;;0.63
43802;BMP280;29429;51.074;13.764;2023-04-07T05:47:48;100176.88;;;0.73
43802;BMP280;29429;51.074;13.764;2023-04-07T05:50:22;100172.22;;;0.77
43802;BMP280;29429;51.074;13.764;2023-04-07T05:52:49;100196.59;;;0.98
43802;BMP280;29429;51.074;13.764;2023-04-07T05:55:24;100178.91;;;1.00
43802;BMP280;29429;51.074;13.764;2023-04-07T05:57:53;100185.72;;;1.12
43802;BMP280;29429;51.074;13.764;2023-04-07T06:00:22;100189.50;;;1.19
43802;BMP280;29429;51.074;13.764;2023-04-07T06:03:01;100179.78;;;1.19
43802;BMP280;29429;51.074;13.764;2023-04-07T06:05:36;100185.38;;;1.36
43802;BMP280;29429;51.074;13.764;2023-04-07T06:08:11;100180.25;;;1.44
43802;BMP280;29429;51.074;13.764;2023-04-07T06:10:40;100188.44;;;1.60
43802;BMP280;29429;51.074;13.764;2023-04-07T06:13:08;100182.66;;;1.66
43802;BMP280;29429;51.074;13.764;2023-04-07T06:15:36;100174.06;;;1.73
43802;BMP280;29429;51.074;13.764;2023-04-07T06:18:03;100178.22;;;1.85
43802;BMP280;29429;51.074;13.764;2023-04-07T06:20:32;100163.84;;;1.90
43802;BMP280;29429;51.074;13.764;2023-04-07T06:23:00;100167.69;;;2.05
43802;BMP280;29429;51.074;13.764;2023-04-07T06:25:27;100171.41;;;2.21
43802;BMP280;29429;51.074;13.764;2023-04-07T06:27:54;100185.09;;;2.34
43802;BMP280;29429;51.074;13.764;2023-04-07T06:30:23;100167.66;;;2.43
43802;BMP280;29429;51.074;13.764;2023-04-07T06:32:51;100171.75;;;2.65
43802;BMP280;29429;51.074;13.764;2023-04-07T06:35:19;100170.56;;;2.77
43802;BMP280;29429;51.074;13.764;2023-04-07T06:37:46;100155.56;;;2.87
43802;BMP280;29429;51.074;13.764;2023-04-07T06:40:14;100154.09;;;3.02
43802;BMP280;29429;51.074;13.764;2023-04-07T06:42:41;100150.31;;;3.14
43802;BMP280;29429;51.074;13.764;2023-04-07T06:45:22;100162.25;;;3.36
43802;BMP280;29429;51.074;13.764;2023-04-07T06:47:50;100139.19;;;3.38
43802;BMP280;29429;51.074;13.764;2023-04-07T06:50:18;100157.06;;;3.61
43802;BMP280;29429;51.074;13.764;2023-04-07T06:52:48;100159.19;;;3.76
43802;BMP280;29429;51.074;13.764;2023-04-07T06:55:16;100164.22;;;3.87
43802;BMP280;29429;51.074;13.764;2023-04-07T06:57:45;100147.66;;;3.94
43802;BMP280;29429;51.074;13.764;2023-04-07T07:00:13;100157.19;;;4.13
43802;BMP280;29429;51.074;13.764;2023-04-07T07:02:40;100150.38;;;4.28
43802;BMP280;29429;51.074;13.764;2023-04-07T07:05:10;100157.75;;;4.50
43802;BMP280;29429;51.074;13.764;2023-04-07T07:07:39;100139.66;;;4.55
43802;BMP280;29429;51.074;13.764;2023-04-07T07:10:08;100156.75;;;4.77
43802;BMP280;29429;51.074;13.764;2023-04-07T07:12:37;100148.22;;;4.83
43802;BMP280;29429;51.074;13.764;2023-04-07T07:15:05;100143.97;;;4.98
43802;BMP280;29429;51.074;13.764;2023-04-07T07:17:34;100161.56;;;5.15
43802;BMP280;29429;51.074;13.764;2023-04-07T07:20:03;100149.84;;;5.18
43802;BMP280;29429;51.074;13.764;2023-04-07T07:22:31;100136.69;;;5.34
43802;BMP280;29429;51.074;13.764;2023-04-07T07:24:59;100153.75;;;5.56
43802;BMP280;29429;51.074;13.764;2023-04-07T07:27:27;100161.53;;;5.73
43802;BMP280;29429;51.074;13.764;2023-04-07T07:29:59;100152.00;;;5.88
43802;BMP280;29429;51.074;13.764;2023-04-07T07:32:28;100153.34;;;6.00
43802;BMP280;29429;51.074;13.764;2023-04-07T07:34:58;100164.06;;;6.23
43802;BMP280;29429;51.074;13.764;2023-04-07T07:37:27;100161.41;;;6.47
43802;BMP280;29429;51.074;13.764;2023-04-07T07:39:55;100165.00;;;6.62
43802;BMP280;29429;51.074;13.764;2023-04-07T07:42:22;100171.75;;;6.81
43802;BMP280;29429;51.074;13.764;2023-04-07T07:44:52;100170.22;;;6.95
43802;BMP280;29429;51.074;13.764;2023-04-07T07:47:22;100166.03;;;7.08
43802;BMP280;29429;51.074;13.764;2023-04-07T07:49:49;100163.00;;;7.19
43802;BMP280;29429;51.074;13.764;2023-04-07T07:52:17;100170.44;;;7.24
43802;BMP280;29429;51.074;13.764;2023-04-07T07:54:45;100170.09;;;7.27
43802;BMP280;29429;51.074;13.764;2023-04-07T07:57:12;100166.91;;;7.31
43802;BMP280;29429;51.074;13.764;2023-04-07T07:59:40;100160.59;;;7.41
43802;BMP280;29429;51.074;13.764;2023-04-07T08:02:08;100167.31;;;7.51
43802;BMP280;29429;51.074;13.764;2023-04-07T08:04:36;100161.97;;;7.59
43802;BMP280;29429;51.074;13.764;2023-04-07T08:07:03;100165.50;;;7.74
43802;BMP280;29429;51.074;13.764;2023-04-07T08:09:32;100161.22;;;7.96
43802;BMP280;29429;51.074;13.764;2023-04-07T08:11:59;100161.81;;;8.21
43802;BMP280;29429;51.074;13.764;2023-04-07T08:14:26;100167.78;;;8.45
43802;BMP280;29429;51.074;13.764;2023-04-07T08:16:54;100159.22;;;8.73
43802;BMP280;29429;51.074;13.764;2023-04-07T08:19:22;100165.72;;;8.99
43802;BMP280;29429;51.074;13.764;2023-04-07T08:21:50;100160.28;;;9.22
43802;BMP280;29429;51.074;13.764;2023-04-07T08:24:17;100164.28;;;9.47
43802;BMP280;29429;51.074;13.764;2023-04-07T08:26:45;100157.97;;;9.69
43802;BMP280;29429;51.074;13.764;2023-04-07T08:29:12;100159.81;;;9.90
43802;BMP280;29429;51.074;13.764;2023-04-07T08:31:39;100155.78;;;10.15
43802;BMP280;29429;51.074;13.764;2023-04-07T08:34:07;100153.34;;;10.42
43802;BMP280;29429;51.074;13.764;2023-04-07T08:36:35;100154.72;;;10.59
43802;BMP280;29429;51.074;13.764;2023-04-07T08:39:02;100156.47;;;10.79
43802;BMP280;29429;51.074;13.764;2023-04-07T08:41:40;100154.56;;;11.08
43802;BMP280;29429;51.074;13.764;2023-04-07T08:44:09;100145.00;;;11.26
43802;BMP280;29429;51.074;13.764;2023-04-07T08:46:40;100147.56;;;11.47
43802;BMP280;29429;51.074;13.764;2023-04-07T08:49:09;100141.09;;;11.70
43802;BMP280;29429;51.074;13.764;2023-04-07T08:51:38;100137.59;;;11.89
43802;BMP280;29429;51.074;13.764;2023-04-07T08:54:12;100138.66;;;12.07
43802;BMP280;29429;51.074;13.764;2023-04-07T08:56:41;100135.78;;;12.15
43802;BMP280;29429;51.074;13.764;2023-04-07T08:59:11;100130.84;;;12.19
43802;BMP280;29429;51.074;13.764;2023-04-07T09:02:22;100130.44;;;12.22
43802;BMP280;29429;51.074;13.764;2023-04-07T09:10:20;100124.47;;;12.40
43802;BMP280;29429;51.074;13.764;2023-04-07T09:12:49;100120.34;;;12.50
43802;BMP280;29429;51.074;13.764;2023-04-07T09:15:17;100119.91;;;12.53
43802;BMP280;29429;51.074;13.764;2023-04-07T09:17:47;100126.91;;;12.61
43802;BMP280;29429;51.074;13.764;2023-04-07T09:20:17;100128.78;;;12.41
43802;BMP280;29429;51.074;13.764;2023-04-07T09:38:39;100122.41;;;12.09
43802;BMP280;29429;51.074;13.764;2023-04-07T09:41:45;100120.38;;;12.04
43802;BMP280;29429;51.074;13.764;2023-04-07T09:45:05;100117.50;;;12.12
43802;BMP280;29429;51.074;13.764;2023-04-07T09:47:53;100107.00;;;12.04
43802;BMP280;29429;51.074;13.764;2023-04-07T09:50:31;100110.09;;;12.14
43802;BMP280;29429;51.074;13.764;2023-04-07T10:31:37;100103.28;;;12.25
43802;BMP280;29429;51.074;13.764;2023-04-07T10:37:28;100108.41;;;12.27
43802;BMP280;29429;51.074;13.764;2023-04-07T10:56:00;100097.06;;;12.70
43802;BMP280;29429;51.074;13.764;2023-04-07T11:14:57;100099.28;;;13.37
43802;BMP280;29429;51.074;13.764;2023-04-07T11:26:17;100088.78;;;13.36
43802;BMP280;29429;51.074;13.764;2023-04-07T11:59:19;100082.34;;;13.43
43802;BMP280;29429;51.074;13.764;2023-04-07T12:02:32;100084.69;;;13.33
43802;BMP280;29429;51.074;13.764;2023-04-07T12:05:45;100078.56;;;13.20
43802;BMP280;29429;51.074;13.764;2023-04-07T12:42:27;100074.66;;;13.85
43802;BMP280;29429;51.074;13.764;2023-04-07T12:45:03;100069.53;;;13.77
43802;BMP280;29429;51.074;13.764;2023-04-07T12:48:12;100075.16;;;14.00
43802;BMP280;29429;51.074;13.764;2023-04-07T12:51:06;100070.25;;;13.97
43802;BMP280;29429;51.074;13.764;2023-04-07T12:56:40;100071.44;;;14.01
43802;BMP280;29429;51.074;13.764;2023-04-07T12:59:21;100065.22;;;14.00
43802;BMP280;29429;51.074;13.764;2023-04-07T13:11:46;100058.13;;;14.13
43802;BMP280;29429;51.074;13.764;2023-04-07T13:42:17;100066.97;;;13.95
43802;BMP280;29429;51.074;13.764;2023-04-07T13:44:55;100070.34;;;13.84
43802;BMP280;29429;51.074;13.764;2023-04-07T13:48:02;100067.91;;;13.76
43802;BMP280;29429;51.074;13.764;2023-04-07T13:51:13;100060.34;;;13.66
43802;BMP280;29429;51.074;13.764;2023-04-07T13:54:08;100057.28;;;13.63
43802;BMP280;29429;51.074;13.764;2023-04-07T13:56:51;100056.31;;;13.51
43802;BMP280;29429;51.074;13.764;2023-04-07T14:00:06;100058.16;;;13.57
43802;BMP280;29429;51.074;13.764;2023-04-07T14:03:48;100060.22;;;13.55
43802;BMP280;29429;51.074;13.764;2023-04-07T14:38:42;100053.69;;;13.13
43802;BMP280;29429;51.074;13.764;2023-04-07T14:41:49;100050.94;;;13.19
43802;BMP280;29429;51.074;13.764;2023-04-07T14:44:30;100050.53;;;13.22
43802;BMP280;29429;51.074;13.764;2023-04-07T14:47:12;100049.59;;;13.41
43802;BMP280;29429;51.074;13.764;2023-04-07T14:50:20;100049.00;;;13.39
43802;BMP280;29429;51.074;13.764;2023-04-07T14:53:24;100053.72;;;13.37
43802;BMP280;29429;51.074;13.764;2023-04-07T14:56:45;100045.00;;;13.17
43802;BMP280;29429;51.074;13.764;2023-04-07T14:59:52;100050.19;;;13.12
43802;BMP280;29429;51.074;13.764;2023-04-07T15:02:23;100049.84;;;12.89
43802;BMP280;29429;51.074;13.764;2023-04-07T15:05:38;100062.03;;;12.78
43802;BMP280;29429;51.074;13.764;2023-04-07T15:08:28;100063.88;;;12.71
43802;BMP280;29429;51.074;13.764;2023-04-07T15:12:17;100062.06;;;12.65
43802;BMP280;29429;51.074;13.764;2023-04-07T15:19:38;100071.75;;;12.60
43802;BMP280;29429;51.074;13.764;2023-04-07T15:22:07;100066.41;;;12.53
43802;BMP280;29429;51.074;13.764;2023-04-07T15:25:22;100064.78;;;12.39
43802;BMP280;29429;51.074;13.764;2023-04-07T15:28:16;100069.34;;;12.26
43802;BMP280;29429;51.074;13.764;2023-04-07T15:31:05;100064.81;;;12.13
43802;BMP280;29429;51.074;13.764;2023-04-07T15:34:01;100072.25;;;12.17
43802;BMP280;29429;51.074;13.764;2023-04-07T15:36:29;100077.16;;;12.14
43802;BMP280;29429;51.074;13.764;2023-04-07T15:39:03;100075.34;;;12.01
43802;BMP280;29429;51.074;13.764;2023-04-07T15:41:39;100068.94;;;11.83
43802;BMP280;29429;51.074;13.764;2023-04-07T15:44:17;100067.50;;;11.80
43802;BMP280;29429;51.074;13.764;2023-04-07T15:47:11;100074.50;;;11.75
43802;BMP280;29429;51.074;13.764;2023-04-07T15:50:07;100073.06;;;11.72
43802;BMP280;29429;51.074;13.764;2023-04-07T15:53:09;100073.47;;;11.69
43802;BMP280;29429;51.074;13.764;2023-04-07T15:59:06;100089.38;;;11.30
43802;BMP280;29429;51.074;13.764;2023-04-07T16:01:48;100089.31;;;11.17
43802;BMP280;29429;51.074;13.764;2023-04-07T16:04:35;100087.19;;;10.99
43802;BMP280;29429;51.074;13.764;2023-04-07T16:07:27;100097.41;;;10.89
43802;BMP280;29429;51.074;13.764;2023-04-07T16:10:21;100105.56;;;10.74
43802;BMP280;29429;51.074;13.764;2023-04-07T16:13:30;100112.03;;;10.59
43802;BMP280;29429;51.074;13.764;2023-04-07T16:17:03;100103.44;;;10.35
43802;BMP280;29429;51.074;13.764;2023-04-07T16:20:06;100096.06;;;10.10
43802;BMP280;29429;51.074;13.764;2023-04-07T16:23:29;100089.78;;;9.96
43802;BMP280;29429;51.074;13.764;2023-04-07T16:26:16;100112.19;;;10.02
43802;BMP280;29429;51.074;13.764;2023-04-07T16:28:43;100113.25;;;9.86
43802;BMP280;29429;51.074;13.764;2023-04-07T16:31:21;100107.56;;;9.68
43802;BMP280;29429;51.074;13.764;2023-04-07T16:33:56;100109.53;;;9.59
43802;BMP280;29429;51.074;13.764;2023-04-07T16:36:41;100114.59;;;9.54
43802;BMP280;29429;51.074;13.764;2023-04-07T16:39:17;100116.00;;;9.50
43802;BMP280;29429;51.074;13.764;2023-04-07T16:41:59;100127.53;;;9.57
43802;BMP280;29429;51.074;13.764;2023-04-07T16:45:05;100117.56;;;9.45
43802;BMP280;29429;51.074;13.764;2023-04-07T16:48:33;100141.66;;;9.37
43802;BMP280;29429;51.074;13.764;2023-04-07T16:53:31;100146.72;;;9.17
43802;BMP280;29429;51.074;13.764;2023-04-07T17:01:43;100137.66;;;8.82
43802;BMP280;29429;51.074;13.764;2023-04-07T17:05:55;100153.81;;;8.81
43802;BMP280;29429;51.074;13.764;2023-04-07T17:17:38;100170.66;;;8.58
43802;BMP280;29429;51.074;13.764;2023-04-07T23:43:40;100333.06;;;6.11
43802;BMP280;29429;51.074;13.764;2023-04-07T23:46:19;100339.00;;;6.13
43802;BMP280;29429;51.074;13.764;2023-04-07T23:49:04;100338.03;;;6.23
